Time;durP1;ratioP1;P1;durP2;ratioP2;P2;SDS_P1;SDS_P2;PMS_P1;PMS_P2;Temp;Humidity;BMP_temperature;BMP_pressure;BME280_temperature;BME280_humidity;BME280_pressure;Samples;Min_cycle;Max_cycle;Signal;HPM_P1;HPM_P2
2022/05/02 00:00:11;;;;;;;7.15;4.53;;;;;;;11.85;52.74;98631.50;5072863;28;20371;-49
2022/05/02 00:02:38;;;;;;;5.10;4.15;;;;;;;11.72;53.08;98627.13;5072778;28;20029;-49
2022/05/02 00:05:05;;;;;;;5.55;4.30;;;;;;;11.66;53.68;98631.38;5072692;28;20036;-49
2022/05/02 00:07:31;;;;;;;7.13;4.45;;;;;;;11.59;54.00;98630.63;5071318;28;20031;-49
2022/05/02 00:09:57;;;;;;;8.57;4.68;;;;;;;11.50;54.23;98637.09;5072706;28;20394;-49
2022/05/02 00:12:23;;;;;;;6.10;5.03;;;;;;;11.42;54.78;98632.09;5071212;28;20472;-49
2022/05/02 00:14:49;;;;;;;4.85;4.35;;;;;;;11.34;55.37;98636.53;5072448;28;20526;-48
2022/05/02 00:17:16;;;;;;;7.20;4.82;;;;;;;11.23;55.66;98634.56;5072532;28;20112;-48
2022/05/02 00:19:42;;;;;;;6.22;4.63;;;;;;;11.09;56.44;98623.28;5071123;28;20021;-49
2022/05/02 00:22:08;;;;;;;6.88;4.70;;;;;;;10.94;56.93;98626.09;5072357;28;20475;-49
2022/05/02 00:24:33;;;;;;;8.35;5.53;;;;;;;10.81;58.08;98631.38;5072322;28;20114;-49
2022/05/02 00:26:59;;;;;;;5.57;4.80;;;;;;;10.68;58.46;98624.31;5072291;28;20112;-48
2022/05/02 00:29:25;;;;;;;7.97;4.57;;;;;;;10.64;58.50;98630.97;5071978;28;20013;-49
2022/05/02 00:31:51;;;;;;;5.80;4.22;;;;;;;10.63;58.41;98623.31;5072268;28;20024;-50
2022/05/02 00:34:17;;;;;;;7.18;5.00;;;;;;;10.59;58.50;98625.53;5070849;28;20466;-50
2022/05/02 00:36:43;;;;;;;9.35;4.53;;;;;;;10.60;58.99;98627.13;5072082;28;20095;-50
2022/05/02 00:39:09;;;;;;;9.57;4.97;;;;;;;10.56;58.56;98626.75;5070911;28;20028;-49
2022/05/02 00:41:35;;;;;;;5.93;4.28;;;;;;;10.53;58.70;98621.88;5070767;28;20074;-49
2022/05/02 00:44:01;;;;;;;8.20;5.57;;;;;;;10.46;58.86;98618.44;5070752;28;20058;-50
2022/05/02 00:46:27;;;;;;;7.07;4.65;;;;;;;10.37;59.42;98619.66;5072022;28;20496;-49
2022/05/02 00:48:53;;;;;;;5.35;4.68;;;;;;;10.26;59.81;98622.84;5071004;28;20031;-49
2022/05/02 00:51:21;;;;;;;8.18;4.95;;;;;;;10.28;59.58;98620.81;5071957;28;20021;-49
2022/05/02 00:53:51;;;;;;;5.90;4.80;;;;;;;10.30;59.72;98613.59;5071843;28;20031;-49
2022/05/02 00:56:18;;;;;;;6.13;5.00;;;;;;;10.31;59.54;98609.97;5071929;28;20028;-50
2022/05/02 00:58:44;;;;;;;6.30;4.70;;;;;;;10.25;59.38;98608.91;5071886;28;20025;-49
2022/05/02 01:01:10;;;;;;;8.07;4.90;;;;;;;10.20;60.08;98612.16;5070508;28;20029;-50
2022/05/02 01:03:36;;;;;;;7.13;4.90;;;;;;;10.16;59.90;98603.06;5071815;28;20513;-49
2022/05/02 01:08:47;;;;;;;7.20;5.13;;;;;;;10.12;60.34;98601.84;5072145;28;20054;-49
2022/05/02 01:11:13;;;;;;;6.68;4.78;;;;;;;10.11;60.72;98607.28;5071705;28;20566;-49
2022/05/02 01:13:45;;;;;;;6.47;5.10;;;;;;;10.06;61.07;98607.06;5071643;28;20525;-49
2022/05/02 01:16:22;;;;;;;5.90;5.35;;;;;;;9.96;61.08;98602.19;5070380;28;20020;-49
2022/05/02 01:18:51;;;;;;;8.35;4.68;;;;;;;9.85;61.56;98597.53;5070463;28;20101;-49
2022/05/02 01:21:19;;;;;;;5.80;4.95;;;;;;;9.85;61.64;98594.94;5070600;28;20028;-48
2022/05/02 01:23:48;;;;;;;8.63;5.20;;;;;;;9.86;61.05;98593.91;5071617;28;20051;-50
2022/05/02 01:26:14;;;;;;;8.40;5.45;;;;;;;9.89;61.11;98598.78;5070392;28;20021;-48
2022/05/02 01:28:48;;;;;;;6.10;5.38;;;;;;;9.84;61.58;98596.75;5070279;28;20025;-49
2022/05/02 01:31:15;;;;;;;7.00;5.20;;;;;;;9.76;61.81;98591.69;5070071;28;20552;-49
2022/05/02 01:33:41;;;;;;;8.90;5.55;;;;;;;9.75;61.63;98600.53;5071449;28;20025;-49
2022/05/02 01:36:07;;;;;;;7.65;5.22;;;;;;;9.74;62.11;98602.34;5070174;28;20410;-49
2022/05/02 01:38:33;;;;;;;9.43;4.95;;;;;;;9.74;62.15;98599.75;5070167;28;20031;-48
2022/05/02 01:41:03;;;;;;;6.30;5.07;;;;;;;9.76;61.24;98602.97;5070224;28;20029;-49
2022/05/02 01:43:29;;;;;;;5.95;5.00;;;;;;;9.79;61.76;98602.56;5071512;28;20020;-48
2022/05/02 01:45:55;;;;;;;10.23;5.45;;;;;;;9.82;61.67;98598.75;5071439;28;20024;-49
2022/05/02 01:48:20;;;;;;;6.43;4.80;;;;;;;9.81;61.49;98602.38;5071391;28;20509;-49
2022/05/02 01:50:46;;;;;;;6.65;4.85;;;;;;;9.72;61.41;98601.75;5072171;28;20020;-49
2022/05/02 01:53:12;;;;;;;7.38;5.22;;;;;;;9.62;61.92;98603.94;5075192;28;20024;-50
2022/05/02 01:55:37;;;;;;;5.95;5.32;;;;;;;9.55;62.01;98601.25;5073874;28;20059;-49
2022/05/02 01:58:03;;;;;;;8.88;5.00;;;;;;;9.52;62.37;98604.28;5075203;28;20020;-49
2022/05/02 02:00:29;;;;;;;5.45;4.88;;;;;;;9.46;61.98;98601.66;5073787;28;20051;-49
2022/05/02 02:02:55;;;;;;;7.85;5.07;;;;;;;9.40;62.30;98603.22;5073800;28;20502;-49
2022/05/02 02:08:04;;;;;;;6.13;5.47;;;;;;;9.24;63.09;98604.38;5075029;28;20059;-49
2022/05/02 02:10:30;;;;;;;7.93;5.57;;;;;;;9.16;63.53;98609.75;5073549;28;20060;-48
2022/05/02 02:12:56;;;;;;;8.32;5.68;;;;;;;9.10;63.98;98607.91;5073575;28;20027;-49
2022/05/02 02:15:21;;;;;;;7.88;5.13;;;;;;;9.11;63.92;98604.28;5074740;28;20390;-49
2022/05/02 02:17:47;;;;;;;7.57;5.72;;;;;;;9.10;63.11;98606.09;5074802;28;20077;-48
2022/05/02 02:20:13;;;;;;;7.65;5.70;;;;;;;9.10;63.76;98608.72;5073445;28;20116;-49
2022/05/02 02:22:39;;;;;;;7.07;6.38;;;;;;;9.11;63.62;98612.13;5073435;28;20522;-49
2022/05/02 02:25:06;;;;;;;6.53;5.55;;;;;;;9.12;63.48;98609.31;5074662;28;20029;-49
2022/05/02 02:27:32;;;;;;;6.43;5.45;;;;;;;9.14;63.31;98612.56;5073322;28;20045;-49
2022/05/02 02:29:59;;;;;;;6.38;5.78;;;;;;;9.13;63.84;98604.91;5074401;28;20036;-48
2022/05/02 02:32:26;;;;;;;6.95;5.82;;;;;;;9.13;63.11;98599.66;5074546;28;20025;-49
2022/05/02 02:34:52;;;;;;;6.68;5.60;;;;;;;9.12;63.44;98604.09;5074484;28;20028;-49
2022/05/02 02:37:17;;;;;;;7.20;5.13;;;;;;;9.04;63.48;98596.41;5074421;28;20029;-49
2022/05/02 02:39:44;;;;;;;7.43;5.63;;;;;;;8.95;63.73;98598.38;5073116;28;20533;-49
2022/05/02 02:42:10;;;;;;;8.30;5.80;;;;;;;8.90;64.34;98599.94;5074374;28;20024;-49
2022/05/02 02:44:36;;;;;;;6.72;5.97;;;;;;;8.87;64.15;98603.72;5074356;28;20021;-49
2022/05/02 02:47:03;;;;;;;7.30;5.18;;;;;;;8.91;63.98;98598.91;5074260;28;20075;-49
2022/05/02 02:49:29;;;;;;;7.97;5.95;;;;;;;8.90;64.81;98598.13;5074259;28;20043;-48
2022/05/02 02:51:55;;;;;;;6.57;5.90;;;;;;;8.94;64.16;98601.16;5072890;28;20163;-49
2022/05/02 02:54:21;;;;;;;7.03;5.85;;;;;;;8.90;63.73;98600.75;5074145;28;20103;-50
2022/05/02 02:56:47;;;;;;;7.47;6.13;;;;;;;8.89;64.22;98593.88;5074157;28;20046;-49
2022/05/02 02:59:13;;;;;;;8.70;6.72;;;;;;;8.90;64.06;98594.69;5072752;28;20167;-49
2022/05/02 03:01:40;;;;;;;9.52;6.25;;;;;;;8.84;65.29;98593.66;5073961;28;20099;-49
2022/05/02 03:06:51;;;;;;;;;;;;;;;8.78;64.32;98592.59;5074933;28;20059;-49
2022/05/02 03:09:17;;;;;;;7.95;6.03;;;;;;;8.76;64.53;98597.22;5073903;28;20348;-49
2022/05/02 03:11:43;;;;;;;7.93;6.18;;;;;;;8.76;64.03;98599.03;5072551;28;20052;-49
2022/05/02 03:14:09;;;;;;;10.13;5.80;;;;;;;8.76;64.43;98591.19;5072435;28;20115;-49
2022/05/02 03:16:34;;;;;;;6.72;6.03;;;;;;;8.74;65.02;98586.13;5074031;28;20154;-49
2022/05/02 03:19:00;;;;;;;7.03;5.88;;;;;;;8.73;64.47;98584.53;5073781;28;20059;-49
2022/05/02 03:21:26;;;;;;;8.18;6.35;;;;;;;8.69;65.01;98587.69;5073634;28;20021;-49
2022/05/02 03:23:52;;;;;;;8.20;6.40;;;;;;;8.65;65.24;98579.41;5072285;28;20169;-49
2022/05/02 03:26:17;;;;;;;7.43;5.53;;;;;;;8.63;65.15;98575.38;5073593;28;20405;-48
2022/05/02 03:28:43;;;;;;;8.32;6.53;;;;;;;8.52;65.29;98574.09;5072224;28;20055;-49
2022/05/02 03:31:09;;;;;;;6.97;6.25;;;;;;;8.47;65.47;98579.06;5071922;28;20161;-49
2022/05/02 03:33:34;;;;;;;9.35;6.50;;;;;;;8.45;65.70;98578.47;5073386;28;20502;-49
2022/05/02 03:36:00;;;;;;;7.20;6.18;;;;;;;8.40;65.08;98574.56;5072065;28;20028;-48
2022/05/02 03:38:26;;;;;;;6.53;5.90;;;;;;;8.36;65.56;98575.16;5073354;28;20497;-47
2022/05/02 03:40:52;;;;;;;7.10;6.40;;;;;;;8.33;66.22;98585.97;5073226;28;20051;-48
2022/05/02 03:43:17;;;;;;;7.35;6.22;;;;;;;8.33;65.61;98578.97;5073182;28;20021;-49
2022/05/02 03:45:43;;;;;;;7.25;6.30;;;;;;;8.37;65.70;98574.13;5073172;28;20150;-48
2022/05/02 03:48:09;;;;;;;6.93;6.10;;;;;;;8.40;65.30;98581.63;5073079;28;20021;-49
2022/05/02 03:50:34;;;;;;;16.73;6.80;;;;;;;8.41;66.10;98580.66;5072989;28;20111;-49
2022/05/02 03:53:00;;;;;;;7.18;6.30;;;;;;;8.38;66.42;98578.38;5071715;28;20126;-48
2022/05/02 03:55:26;;;;;;;9.23;5.82;;;;;;;8.38;65.92;98581.00;5071540;28;20032;-50
2022/05/02 03:57:52;;;;;;;6.78;5.90;;;;;;;8.38;65.60;98581.00;5071556;28;20440;-48
2022/05/02 04:00:18;;;;;;;7.07;6.35;;;;;;;8.37;65.98;98574.97;5072873;28;20035;-49
2022/05/02 04:02:44;;;;;;;9.55;5.85;;;;;;;8.38;66.02;98584.41;5072830;28;20024;-49
2022/05/02 04:05:10;;;;;;;8.52;6.60;;;;;;;8.34;66.12;98579.75;5072665;28;20028;-49
2022/05/02 04:07:36;;;;;;;8.50;6.72;;;;;;;8.34;65.74;98575.31;5072767;28;20074;-48
2022/05/02 04:10:03;;;;;;;11.68;6.43;;;;;;;8.34;65.84;98574.53;5072644;28;20031;-49
2022/05/02 04:12:40;;;;;;;8.80;6.60;;;;;;;8.29;66.22;98569.88;5070840;28;20490;-49
2022/05/02 04:15:07;;;;;;;8.85;6.97;;;;;;;8.26;65.67;98572.84;5071299;28;20085;-49
2022/05/02 04:17:33;;;;;;;9.95;7.15;;;;;;;8.21;65.86;98575.25;5071268;28;20055;-48
2022/05/02 04:19:59;;;;;;;10.00;6.97;;;;;;;8.14;65.97;98575.16;5071174;28;20064;-48
2022/05/02 04:22:25;;;;;;;10.70;7.22;;;;;;;8.08;66.33;98569.88;5071070;28;20569;-49
2022/05/02 04:24:50;;;;;;;9.15;6.25;;;;;;;8.07;66.60;98576.91;5072392;28;20103;-48
2022/05/02 04:27:16;;;;;;;8.38;7.15;;;;;;;8.13;66.43;98576.16;5072280;28;20020;-49
2022/05/02 04:29:42;;;;;;;9.02;6.65;;;;;;;8.21;66.68;98575.25;5072139;28;20038;-49
2022/05/02 04:32:07;;;;;;;9.20;7.50;;;;;;;8.23;66.39;98575.84;5070982;28;20039;-49
2022/05/02 04:34:33;;;;;;;8.88;7.45;;;;;;;8.28;66.09;98581.31;5070847;28;20078;-49
2022/05/02 04:36:59;;;;;;;8.65;6.53;;;;;;;8.32;66.38;98576.53;5070894;28;20505;-49
2022/05/02 04:39:25;;;;;;;12.20;7.20;;;;;;;8.34;65.79;98579.75;5072157;28;20021;-49
2022/05/02 04:41:50;;;;;;;10.85;6.50;;;;;;;8.37;65.83;98577.59;5070797;28;20492;-48
2022/05/02 04:44:16;;;;;;;9.32;6.93;;;;;;;8.44;65.91;98579.47;5072061;28;20025;-49
2022/05/02 04:46:42;;;;;;;11.18;6.90;;;;;;;8.54;65.68;98579.94;5070992;28;20025;-49
2022/05/02 04:49:07;;;;;;;10.88;6.50;;;;;;;8.65;65.57;98574.19;5070913;28;20028;-47
2022/05/02 04:51:33;;;;;;;22.15;7.13;;;;;;;8.88;64.70;98579.19;5071976;28;20402;-48
2022/05/02 04:53:59;;;;;;;11.18;6.68;;;;;;;9.48;64.06;98576.06;5070551;28;20031;-48
2022/05/02 04:56:24;;;;;;;10.48;6.07;;;;;;;10.16;61.84;98568.97;5070623;28;20464;-49
2022/05/02 04:58:50;;;;;;;8.60;6.72;;;;;;;10.82;60.26;98574.44;5070561;28;20029;-49
2022/05/02 05:01:17;;;;;;;7.70;5.95;;;;;;;11.40;58.75;98566.59;5070595;28;20406;-49
2022/05/02 05:03:43;;;;;;;12.85;6.57;;;;;;;11.88;56.98;98570.63;5070516;28;20031;-49
2022/05/02 05:06:09;;;;;;;9.07;6.32;;;;;;;12.00;55.95;98561.06;5071840;28;20028;-49
2022/05/02 05:08:35;;;;;;;20.50;7.70;;;;;;;12.07;55.79;98564.44;5070487;28;20020;-49
2022/05/02 05:11:22;;;;;;;10.43;6.13;;;;;;;12.52;55.35;98571.41;5071780;28;20028;-49
2022/05/02 05:17:18;;;;;;;11.05;5.82;;;;;;;13.69;51.96;98568.75;5072012;28;20055;-49
2022/05/02 05:20:12;;;;;;;12.85;5.93;;;;;;;13.79;51.81;98565.56;5071728;28;20502;-49
2022/05/02 05:23:10;;;;;;;11.40;6.38;;;;;;;13.98;51.46;98563.69;5071657;28;20390;-49
2022/05/02 05:25:39;;;;;;;10.13;6.47;;;;;;;14.03;51.44;98568.31;5073612;28;20070;-50
2022/05/02 05:28:21;;;;;;;15.13;6.28;;;;;;;14.41;50.83;98567.09;5075799;28;20021;-49
2022/05/02 05:30:50;;;;;;;9.65;5.75;;;;;;;14.90;49.51;98563.22;5075587;28;20068;-50
2022/05/02 05:33:52;;;;;;;8.88;5.28;;;;;;;15.91;48.07;98567.34;5074315;28;20055;-50
2022/05/02 05:36:32;;;;;;;11.30;5.70;;;;;;;16.68;45.68;98564.09;5073409;28;20032;-50
2022/05/02 05:39:15;;;;;;;15.90;5.82;;;;;;;17.14;43.80;98566.59;5073259;28;20047;-49
2022/05/02 05:42:02;;;;;;;11.05;5.72;;;;;;;17.55;43.48;98562.56;5073198;28;20039;-50
2022/05/02 05:44:51;;;;;;;8.02;5.07;;;;;;;18.08;41.71;98559.41;5056405;28;20498;-50
2022/05/02 05:47:54;;;;;;;10.07;5.72;;;;;;;18.96;40.05;98565.09;5073277;28;20074;-50
2022/05/02 05:50:29;;;;;;;10.60;5.20;;;;;;;19.70;38.26;98568.59;5056210;28;20405;-50
2022/05/02 05:53:15;;;;;;;11.65;4.75;;;;;;;20.47;37.45;98568.69;5057139;28;20054;-49
2022/05/02 05:56:02;;;;;;;7.93;5.43;;;;;;;20.42;36.60;98567.88;5073109;28;20055;-50
2022/05/02 05:58:28;;;;;;;17.17;5.65;;;;;;;21.12;36.04;98566.16;5073064;28;20068;-50
2022/05/02 06:01:07;;;;;;;10.38;5.80;;;;;;;22.04;34.80;98570.25;5072868;28;20052;-50
2022/05/02 06:03:37;;;;;;;9.27;5.60;;;;;;;21.99;34.29;98567.63;5072912;28;20040;-50
2022/05/02 06:06:02;;;;;;;16.10;6.22;;;;;;;22.68;33.72;98565.75;5055984;28;20078;-48
2022/05/02 06:08:29;;;;;;;14.30;5.95;;;;;;;23.56;32.17;98575.47;5072817;28;20549;-50
2022/05/02 06:10:58;;;;;;;14.57;6.03;;;;;;;24.28;31.19;98567.22;5068698;28;20506;-50
2022/05/02 06:13:29;;;;;;;21.48;5.97;;;;;;;24.86;30.43;98561.38;5074869;28;20024;-50
2022/05/02 06:18:42;;;;;;;14.73;4.90;;;;;;;25.37;28.85;98566.88;5074892;28;20090;-50
2022/05/02 06:21:08;;;;;;;17.52;5.70;;;;;;;25.57;28.30;98574.50;5074712;28;20027;-50
2022/05/02 06:23:47;;;;;;;15.43;5.70;;;;;;;25.88;28.40;98563.88;5074746;28;20028;-50
2022/05/02 06:26:14;;;;;;;14.88;5.22;;;;;;;25.83;27.64;98563.19;5074663;28;20436;-50
2022/05/02 06:28:43;;;;;;;25.27;6.13;;;;;;;25.75;27.75;98571.97;5074654;28;20064;-51
2022/05/02 06:31:15;;;;;;;14.80;5.55;;;;;;;26.00;27.43;98567.97;5073004;28;20045;-50
2022/05/02 06:33:44;;;;;;;8.75;5.60;;;;;;;25.87;27.26;98569.53;5074533;28;20024;-50
2022/05/02 06:36:12;;;;;;;22.20;6.03;;;;;;;25.68;27.39;98577.78;5072727;28;20033;-50
2022/05/02 06:38:57;;;;;;;17.63;5.95;;;;;;;25.51;27.54;98576.53;5073178;28;20069;-50
2022/05/02 06:41:34;;;;;;;21.00;6.55;;;;;;;25.50;28.03;98571.44;5074469;28;20032;-49
2022/05/02 06:44:09;;;;;;;17.20;5.47;;;;;;;25.39;27.73;98567.38;5073030;28;20522;-50
2022/05/02 06:46:46;;;;;;;16.92;5.13;;;;;;;25.50;27.87;98576.81;5073018;28;20031;-50
2022/05/02 06:49:12;;;;;;;10.60;5.10;;;;;;;25.58;27.38;98576.09;5074316;28;20024;-51
2022/05/02 06:51:48;;;;;;;10.82;6.03;;;;;;;25.38;27.62;98580.00;5074219;28;20021;-49
2022/05/02 06:54:22;;;;;;;14.48;5.90;;;;;;;25.54;27.63;98575.13;5074157;28;20028;-50
2022/05/02 06:57:09;;;;;;;13.65;5.85;;;;;;;25.70;27.29;98576.38;5074186;28;20044;-50
2022/05/02 07:00:02;;;;;;;20.65;7.05;;;;;;;25.91;27.61;98584.78;5072816;28;20033;-50
2022/05/02 07:02:37;;;;;;;13.88;5.65;;;;;;;26.37;27.16;98572.16;5074130;28;20120;-50
2022/05/02 07:05:18;;;;;;;9.98;6.07;;;;;;;26.74;26.77;98575.53;5072757;28;20746;-51
2022/05/02 07:08:03;;;;;;;17.90;6.07;;;;;;;26.95;26.38;98570.41;5073973;28;20059;-49
2022/05/02 07:10:35;;;;;;;10.15;5.38;;;;;;;26.89;26.06;98577.03;5073959;28;20032;-50
2022/05/02 07:13:00;;;;;;;9.10;5.60;;;;;;;26.56;26.41;98577.34;5073806;28;20119;-50
2022/05/02 07:15:48;;;;;;;10.93;5.65;;;;;;;26.39;27.15;98578.03;5073754;28;20133;-50
2022/05/02 07:18:51;;;;;;;13.80;5.90;;;;;;;26.21;27.08;98581.69;5073800;28;20063;-50
2022/05/02 07:21:39;;;;;;;12.05;5.50;;;;;;;26.75;26.97;98579.03;5073712;28;20021;-50
2022/05/02 07:24:30;;;;;;;9.77;5.55;;;;;;;27.61;25.78;98581.22;5073671;28;20021;-50
2022/05/02 07:27:26;;;;;;;10.32;5.47;;;;;;;28.78;24.24;98575.91;5072350;28;20036;-50
2022/05/02 07:29:58;;;;;;;13.50;5.50;;;;;;;29.48;23.46;98572.88;5073361;28;20132;-50
2022/05/02 07:32:25;;;;;;;9.90;5.15;;;;;;;30.24;22.26;98566.38;5073458;28;20025;-50
2022/05/02 07:34:52;;;;;;;17.55;5.82;;;;;;;30.55;21.93;98570.53;5073328;28;20020;-51
2022/05/02 07:37:23;;;;;;;11.02;5.50;;;;;;;31.38;21.27;98571.25;5073328;28;20027;-51
2022/05/02 07:39:51;;;;;;;9.13;4.78;;;;;;;32.04;20.34;98566.59;5073415;28;20494;-50
2022/05/02 07:42:18;;;;;;;11.07;5.43;;;;;;;32.17;20.25;98570.81;5073207;28;20032;-49
2022/05/02 07:44:47;;;;;;;10.00;5.03;;;;;;;31.75;20.44;98576.63;5073214;28;20025;-50
2022/05/02 07:47:15;;;;;;;9.60;5.30;;;;;;;31.69;20.61;98564.44;5071426;28;20049;-50
2022/05/02 07:49:48;;;;;;;9.70;4.90;;;;;;;32.17;20.24;98562.69;5072861;28;20025;-49
2022/05/02 07:52:20;;;;;;;22.58;5.60;;;;;;;32.36;19.63;98570.19;5073092;28;20505;-50
2022/05/02 07:54:47;;;;;;;34.58;7.68;;;;;;;32.82;19.26;98562.44;5073009;28;20024;-51
2022/05/02 07:57:15;;;;;;;11.73;5.47;;;;;;;32.92;18.54;98565.75;5072943;28;20032;-50
2022/05/02 07:59:42;;;;;;;6.35;4.65;;;;;;;33.00;18.85;98567.50;5072882;28;20055;-51
2022/05/02 08:02:08;;;;;;;13.52;5.07;;;;;;;33.09;18.97;98564.63;5072861;28;20068;-50
2022/05/02 08:04:38;;;;;;;10.30;4.90;;;;;;;32.93;18.92;98564.63;5071556;28;20029;-51
2022/05/02 08:07:24;;;;;;;9.52;4.68;;;;;;;32.77;18.96;98564.63;5072764;28;20020;-51
2022/05/02 08:10:02;;;;;;;15.93;5.75;;;;;;;32.87;19.06;98563.31;5072880;28;20052;-50
2022/05/02 08:12:40;;;;;;;11.75;4.55;;;;;;;32.76;19.09;98555.69;5072688;28;20035;-50
2022/05/02 08:15:25;;;;;;;12.10;5.57;;;;;;;32.96;19.11;98556.56;5071233;28;20032;-51
2022/05/02 08:18:33;;;;;;;26.95;5.82;;;;;;;32.93;19.12;98559.97;5071274;28;20047;-51
2022/05/02 08:21:17;;;;;;;21.52;5.63;;;;;;;32.97;19.07;98558.13;5071253;28;20407;-50
2022/05/02 08:27:31;;;;;;;7.38;4.50;;;;;;;32.99;19.53;98555.06;5072638;28;20043;-51
2022/05/02 08:30:10;;;;;;;10.75;4.72;;;;;;;33.33;18.70;98545.34;5072144;28;20534;-50
2022/05/02 08:32:51;;;;;;;6.90;4.88;;;;;;;33.68;17.96;98549.22;5071002;28;20032;-51
2022/05/02 08:35:23;;;;;;;11.35;4.65;;;;;;;34.10;17.71;98543.03;5072150;28;20081;-49
2022/05/02 08:38:28;;;;;;;8.90;4.28;;;;;;;34.73;17.25;98539.91;5072143;28;20056;-51
2022/05/02 08:41:09;;;;;;;26.52;6.03;;;;;;;35.04;17.31;98535.28;5070842;28;20506;-50
2022/05/02 08:43:37;;;;;;;9.18;4.88;;;;;;;34.87;17.22;98527.63;5072108;28;20028;-51
2022/05/02 08:46:13;;;;;;;8.23;3.78;;;;;;;35.25;16.55;98531.31;5072036;28;20028;-51
2022/05/02 08:49:37;;;;;;;14.63;4.60;;;;;;;35.72;16.50;98530.00;5072097;28;20070;-51
2022/05/02 08:52:19;;;;;;;13.27;4.70;;;;;;;36.29;16.20;98521.63;5072011;28;20047;-51
2022/05/02 08:55:02;;;;;;;17.67;4.90;;;;;;;36.64;15.81;98528.56;5071925;28;20059;-51
2022/05/02 08:58:16;;;;;;;16.67;4.32;;;;;;;37.10;15.30;98525.38;5072082;28;20024;-51
2022/05/02 09:01:18;;;;;;;17.70;4.28;;;;;;;37.79;14.88;98519.06;5070282;28;20040;-51
2022/05/02 09:04:13;;;;;;;21.60;6.15;;;;;;;37.88;14.70;98513.25;5071918;28;20013;-50
2022/05/02 09:06:45;;;;;;;13.75;4.68;;;;;;;38.04;14.79;98499.97;5071869;28;20082;-51
2022/05/02 09:09:49;;;;;;;46.00;5.50;;;;;;;37.44;15.04;98504.06;5070524;28;20519;-51
2022/05/02 09:12:36;;;;;;;15.93;4.75;;;;;;;37.65;15.44;98508.06;5070867;28;20052;-52
2022/05/02 09:15:23;;;;;;;12.75;5.05;;;;;;;37.72;14.85;98505.38;5071963;28;20082;-52
2022/05/02 09:18:23;;;;;;;25.77;5.07;;;;;;;38.02;14.34;98496.03;5071793;28;20494;-51
2022/05/02 09:21:00;;;;;;;6.60;3.10;;;;;;;38.38;13.93;98498.84;5056286;28;20029;-51
2022/05/02 09:23:25;;;;;;;17.42;5.55;;;;;;;38.62;13.86;98495.34;5070412;28;20028;-51
2022/05/02 09:26:11;;;;;;;19.90;5.28;;;;;;;38.81;14.10;98496.09;5071435;28;20398;-51
2022/05/02 09:28:52;;;;;;;14.30;4.68;;;;;;;38.60;14.29;98492.19;5070758;28;20110;-51
2022/05/02 09:31:29;;;;;;;8.18;3.60;;;;;;;38.04;13.59;98485.47;5071303;28;20056;-51
2022/05/02 09:33:55;;;;;;;24.95;5.85;;;;;;;37.81;14.27;98488.56;5071830;28;20024;-51
2022/05/02 09:36:43;;;;;;;12.43;3.90;;;;;;;38.28;13.55;98486.69;5071465;28;20115;-51
2022/05/02 09:39:22;;;;;;;17.00;5.35;;;;;;;38.24;13.75;98488.66;5070200;28;20115;-51
2022/05/02 09:41:51;;;;;;;9.40;3.70;;;;;;;38.12;13.76;98493.34;5070256;28;20035;-51
2022/05/02 09:51:14;;;;;;;9.48;3.75;;;;;;;37.18;14.70;98488.69;5071427;28;20519;-51
2022/05/02 09:54:05;;;;;;;8.07;3.70;;;;;;;36.38;15.18;98489.28;5070448;28;20040;-50
2022/05/02 09:56:58;;;;;;;10.25;3.83;;;;;;;36.03;15.50;98484.28;5071622;28;20056;-51
2022/05/02 09:59:26;;;;;;;10.00;3.50;;;;;;;36.19;15.43;98482.88;5071370;28;20020;-51
2022/05/02 10:02:21;;;;;;;15.20;4.05;;;;;;;36.54;15.67;98478.91;5071497;28;20021;-51
2022/05/02 10:05:07;;;;;;;9.02;3.65;;;;;;;36.53;15.25;98476.53;5067362;28;20115;-50
2022/05/02 10:07:44;;;;;;;6.72;3.92;;;;;;;36.10;15.42;98473.41;5071161;28;20078;-50
2022/05/02 10:10:39;;;;;;;14.02;3.70;;;;;;;35.54;15.83;98478.66;5071275;28;20028;-51
2022/05/02 10:13:23;;;;;;;6.53;3.88;;;;;;;35.34;15.91;98467.13;5074954;28;20033;-51
2022/05/02 10:16:24;;;;;;;;;;;;;;;35.95;16.11;98467.81;5073986;28;20029;-51
2022/05/02 10:19:07;;;;;;;7.47;3.80;;;;;;;35.92;15.72;98465.03;5072524;28;19920;-52
2022/05/02 10:22:15;;;;;;;8.82;3.30;;;;;;;35.95;15.42;98465.06;5072434;28;20036;-52
2022/05/02 10:25:03;;;;;;;7.82;3.20;;;;;;;36.44;15.48;98465.13;5055713;28;20032;-51
2022/05/02 10:28:04;;;;;;;11.80;3.00;;;;;;;36.64;14.54;98452.03;5072426;28;20037;-51
2022/05/02 10:31:09;;;;;;;5.00;3.05;;;;;;;36.89;14.73;98457.66;5030299;28;20519;-51
2022/05/02 10:33:46;;;;;;;7.43;3.50;;;;;;;37.06;14.67;98453.44;5050909;28;20064;-52
2022/05/02 10:36:13;;;;;;;7.75;3.10;;;;;;;36.94;14.88;98447.09;5052295;28;20025;-51
2022/05/02 10:39:05;;;;;;;5.15;3.05;;;;;;;36.76;14.68;98447.03;5052280;28;20021;-51
2022/05/02 10:41:43;;;;;;;6.63;3.30;;;;;;;36.53;14.60;98444.50;5052203;28;20090;-50
2022/05/02 10:44:14;;;;;;;8.20;2.90;;;;;;;36.66;14.52;98445.00;5052234;28;20032;-51
2022/05/02 10:46:46;;;;;;;3.92;2.58;;;;;;;36.52;14.42;98442.94;5035434;28;20082;-51
2022/05/02 10:49:22;;;;;;;11.57;3.53;;;;;;;35.89;15.10;98442.00;5052201;28;20152;-51
2022/05/02 10:52:48;;;;;;;5.90;2.55;;;;;;;36.19;15.17;98447.38;5050600;28;20068;-50
2022/05/02 10:55:27;;;;;;;5.32;2.85;;;;;;;36.43;14.85;98439.75;5071976;28;20064;-50
2022/05/02 10:57:55;;;;;;;8.43;3.05;;;;;;;36.20;15.07;98429.00;5072000;28;20024;-50
2022/05/02 11:00:23;;;;;;;5.18;2.80;;;;;;;35.47;15.13;98434.13;5055088;28;20058;-51
2022/05/02 11:03:09;;;;;;;6.15;2.97;;;;;;;35.31;15.68;98428.88;5055049;28;20127;-51
2022/05/02 11:05:58;;;;;;;5.40;2.83;;;;;;;35.24;15.93;98417.88;5071775;28;20043;-51
2022/05/02 11:08:50;;;;;;;7.68;3.20;;;;;;;35.31;15.91;98426.13;5058363;28;20040;-51
2022/05/02 11:11:49;;;;;;;6.47;3.03;;;;;;;35.77;15.61;98413.00;5061311;28;20037;-51
2022/05/02 11:14:34;;;;;;;6.53;3.42;;;;;;;35.71;15.74;98419.19;5071587;28;20033;-51
2022/05/02 11:17:14;;;;;;;6.30;2.60;;;;;;;35.49;15.58;98407.25;5054779;28;20524;-52
2022/05/02 11:22:37;;;;;;;9.75;2.38;;;;;;;35.57;15.62;98400.69;5070254;28;20082;-51
2022/05/02 11:25:17;;;;;;;18.03;3.33;;;;;;;34.79;16.25;98398.56;5071477;28;20121;-51
2022/05/02 11:28:04;;;;;;;5.45;3.28;;;;;;;33.99;16.56;98393.06;5069294;28;20538;-51
2022/05/02 11:30:57;;;;;;;8.25;3.13;;;;;;;33.70;17.52;98397.22;5053347;28;20075;-51
2022/05/02 11:33:49;;;;;;;8.50;2.92;;;;;;;33.99;17.51;98398.50;5069230;28;20474;-51
2022/05/02 11:36:28;;;;;;;6.95;3.00;;;;;;;34.18;16.92;98394.94;5073491;28;20469;-51
2022/05/02 11:39:05;;;;;;;6.65;2.72;;;;;;;34.47;17.08;98387.19;5073452;28;20108;-51
2022/05/02 11:41:32;;;;;;;8.50;3.00;;;;;;;34.56;16.99;98390.44;5073321;28;20422;-52
2022/05/02 11:44:11;;;;;;;8.57;3.30;;;;;;;34.56;16.72;98382.28;5073271;28;20059;-51
2022/05/02 11:46:52;;;;;;;7.00;3.58;;;;;;;34.27;16.93;98387.31;5073230;28;20024;-52
2022/05/02 11:49:33;;;;;;;7.32;3.28;;;;;;;34.29;17.15;98378.75;5073181;28;20063;-50
2022/05/02 11:52:02;;;;;;;6.18;3.00;;;;;;;34.32;17.27;98389.72;5073111;28;20028;-51
2022/05/02 11:54:27;;;;;;;5.72;3.03;;;;;;;34.47;16.36;98384.47;5072988;28;20172;-50
2022/05/02 11:57:16;;;;;;;5.03;2.70;;;;;;;34.53;16.55;98383.00;5072956;28;20020;-52
2022/05/02 12:00:07;;;;;;;7.45;2.60;;;;;;;34.68;16.09;98387.53;5072224;28;20402;-50
2022/05/02 12:02:41;;;;;;;7.80;2.92;;;;;;;34.84;16.19;98386.59;5072909;28;20024;-51
2022/05/02 12:05:16;;;;;;;6.90;3.13;;;;;;;34.81;16.14;98379.91;5072836;28;20024;-52
2022/05/02 12:07:49;;;;;;;7.22;2.70;;;;;;;34.65;16.21;98382.81;5071494;28;20087;-51
2022/05/02 12:10:15;;;;;;;8.18;3.10;;;;;;;34.51;16.36;98380.66;5071441;28;20490;-51
2022/05/02 12:12:51;;;;;;;4.63;3.03;;;;;;;34.05;16.58;98375.25;5071272;28;20406;-52
2022/05/02 12:15:18;;;;;;;3.38;2.70;;;;;;;33.55;17.00;98372.44;5071258;28;20448;-51
2022/05/02 12:17:51;;;;;;;5.03;2.88;;;;;;;33.21;17.55;98372.19;5072610;28;20021;-51
2022/05/02 12:20:31;;;;;;;8.77;3.78;;;;;;;33.18;17.69;98367.47;5072479;28;20023;-50
2022/05/02 12:23:21;;;;;;;6.88;2.97;;;;;;;32.98;17.40;98358.50;5072578;28;20028;-51
2022/05/02 12:25:54;;;;;;;3.38;2.55;;;;;;;32.24;17.79;98375.50;5071871;28;20078;-51
2022/05/02 12:28:43;;;;;;;7.53;2.80;;;;;;;31.80;18.05;98372.84;5072415;28;20044;-51
2022/05/02 12:31:15;;;;;;;4.05;2.70;;;;;;;31.51;18.43;98379.47;5072160;28;20119;-52
2022/05/02 12:33:43;;;;;;;7.68;2.45;;;;;;;31.42;18.63;98376.88;5071903;28;20032;-50